createdAt,value
2019-02-04T00:04:52.786Z,11.48
2019-02-04T00:09:58.797Z,10.43
2019-02-04T00:15:04.788Z,6.04
2019-02-04T00:20:10.868Z,6.70
2019-02-04T00:25:16.890Z,7.19
2019-02-04T00:30:22.879Z,12.62
2019-02-04T00:35:28.888Z,7.34
2019-02-04T00:40:34.859Z,6.53
2019-02-04T00:45:40.956Z,8.55
2019-02-04T00:50:47.051Z,7.10
2019-02-04T00:55:53.057Z,8.05
2019-02-04T01:00:59.058Z,7.86
2019-02-04T01:06:05.093Z,6.81
2019-02-04T01:11:11.358Z,15.49
2019-02-04T01:16:17.449Z,8.47
2019-02-04T01:21:23.475Z,12.88
2019-02-04T01:26:29.537Z,8.14
2019-02-04T01:31:35.528Z,6.65
2019-02-04T01:36:41.531Z,6.99
2019-02-04T01:41:47.536Z,13.64
2019-02-04T01:46:53.525Z,7.05
2019-02-04T01:51:59.495Z,7.52
2019-02-04T01:57:05.736Z,7.57
2019-02-04T02:02:11.729Z,15.06
2019-02-04T02:07:17.725Z,17.12
2019-02-04T02:12:23.259Z,8.18
2019-02-04T02:17:29.260Z,17.67
2019-02-04T02:22:35.303Z,8.06
2019-02-04T02:27:41.294Z,14.24
2019-02-04T02:32:47.296Z,15.29
2019-02-04T02:37:53.314Z,8.42
2019-02-04T02:42:59.342Z,7.92
2019-02-04T02:48:05.387Z,8.03
2019-02-04T02:53:11.403Z,15.46
2019-02-04T02:58:17.397Z,8.42
2019-02-04T03:03:23.405Z,8.69
2019-02-04T03:08:29.407Z,14.64
2019-02-04T03:13:35.435Z,9.51
2019-02-04T03:18:41.644Z,9.76
2019-02-04T03:23:47.531Z,9.47
2019-02-04T03:28:53.516Z,9.95
2019-02-04T03:33:59.518Z,9.32
2019-02-04T03:39:05.494Z,10.42
2019-02-04T03:44:11.513Z,9.47
2019-02-04T03:49:17.528Z,9.07
2019-02-04T03:54:23.515Z,11.13
2019-02-04T03:59:29.500Z,9.57
2019-02-04T04:04:35.476Z,10.59
2019-02-04T04:09:41.450Z,13.31
2019-02-04T04:14:47.445Z,10.84
2019-02-04T04:19:53.538Z,18.31
2019-02-04T04:24:59.485Z,10.06
2019-02-04T04:30:05.549Z,17.59
2019-02-04T04:35:11.564Z,11.23
2019-02-04T04:40:17.612Z,18.66
2019-02-04T04:45:23.591Z,19.63
2019-02-04T04:50:29.676Z,11.98
2019-02-04T04:55:35.616Z,12.30
2019-02-04T05:00:41.604Z,15.03
2019-02-04T05:05:47.606Z,30.30
2019-02-04T05:10:53.655Z,17.26
2019-02-04T05:15:59.644Z,17.95
2019-02-04T05:21:05.634Z,16.65
2019-02-04T05:26:11.670Z,15.51
2019-02-04T05:31:17.644Z,30.25
2019-02-04T05:36:23.806Z,16.86
2019-02-04T05:41:29.825Z,16.37
2019-02-04T05:46:35.902Z,17.53
2019-02-04T05:51:42.073Z,15.87
2019-02-04T05:56:48.068Z,16.88
2019-02-04T06:01:54.070Z,15.82
2019-02-04T06:07:00.072Z,17.09
2019-02-04T06:12:06.107Z,17.91
2019-02-04T06:17:12.117Z,17.71
2019-02-04T06:22:18.221Z,17.14
2019-02-04T06:27:24.220Z,32.38
2019-02-04T06:32:30.332Z,17.62
2019-02-04T06:37:36.361Z,17.26
2019-02-04T06:42:42.368Z,17.22
2019-02-04T06:47:48.401Z,27.85
2019-02-04T06:52:54.383Z,18.75
2019-02-04T06:58:00.405Z,18.18
2019-02-04T07:03:06.380Z,17.33
2019-02-04T07:08:12.416Z,19.00
2019-02-04T07:13:18.430Z,19.40
2019-02-04T07:18:24.436Z,17.43
2019-02-04T07:23:30.455Z,31.47
2019-02-04T07:28:36.500Z,17.18
2019-02-04T07:33:42.720Z,17.08
2019-02-04T07:38:48.745Z,15.95
2019-02-04T07:43:54.734Z,28.82
2019-02-04T07:49:00.708Z,15.45
2019-02-04T07:54:06.722Z,15.02
2019-02-04T07:59:12.750Z,16.34
2019-02-04T08:04:18.722Z,14.35
2019-02-04T08:09:24.720Z,14.05
2019-02-04T08:14:30.815Z,15.47
2019-02-04T08:19:46.914Z,13.75
2019-02-04T08:24:42.325Z,14.21
2019-02-04T08:29:48.460Z,14.88
2019-02-04T08:34:54.354Z,24.44
2019-02-04T08:40:00.369Z,14.04
2019-02-04T08:45:06.418Z,14.51
2019-02-04T08:50:12.408Z,12.87
2019-02-04T08:55:18.413Z,13.49
2019-02-04T09:00:24.416Z,11.63
2019-02-04T09:05:30.397Z,21.90
2019-02-04T09:10:36.425Z,21.52
2019-02-04T09:15:42.470Z,12.00
2019-02-04T09:20:48.486Z,10.40
2019-02-04T09:25:54.497Z,10.70
2019-02-04T09:31:00.675Z,10.95
2019-02-04T09:36:06.721Z,9.77
2019-02-04T09:41:12.766Z,19.38
2019-02-04T09:46:18.738Z,9.78
2019-02-04T09:51:24.809Z,7.72
2019-02-04T09:56:30.975Z,9.64
2019-02-04T10:01:37.003Z,9.63
2019-02-04T10:06:42.976Z,10.45
2019-02-04T10:11:48.993Z,7.94
2019-02-04T10:16:55.035Z,10.46
2019-02-04T10:22:01.033Z,9.98
2019-02-04T10:27:07.011Z,8.33
2019-02-04T10:32:12.984Z,6.07
2019-02-04T10:37:18.981Z,7.61
2019-02-04T10:42:25.040Z,6.62
2019-02-04T10:47:31.255Z,6.69
2019-02-04T10:52:37.195Z,8.29
2019-02-04T10:57:44.803Z,6.89
2019-02-04T11:02:50.818Z,11.97
2019-02-04T11:07:56.809Z,6.57
2019-02-04T11:13:02.888Z,10.05
2019-02-04T11:18:08.912Z,7.78
2019-02-04T11:23:14.936Z,5.78
2019-02-04T11:28:20.938Z,5.57
2019-02-04T11:33:26.949Z,7.12
2019-02-04T11:38:33.006Z,7.86
2019-02-04T11:43:38.961Z,9.72
2019-02-04T11:48:44.932Z,14.47
2019-02-04T11:53:51.030Z,8.24
2019-02-04T11:58:57.044Z,6.30
2019-02-04T12:04:03.141Z,7.34
2019-02-04T12:09:09.113Z,7.21
2019-02-04T12:14:15.128Z,9.04
2019-02-04T12:19:21.216Z,8.23
2019-02-04T12:24:27.329Z,7.19
2019-02-04T12:29:33.319Z,4.24
2019-02-04T12:34:39.349Z,10.12
2019-02-04T12:39:45.330Z,5.74
2019-02-04T12:44:51.346Z,5.14
2019-02-04T12:49:57.310Z,4.47
2019-02-04T12:55:03.319Z,8.81
2019-02-04T13:00:09.338Z,5.64
2019-02-04T13:05:15.399Z,4.27
2019-02-04T13:10:21.388Z,3.28
2019-02-04T13:15:27.412Z,3.16
2019-02-04T13:20:33.412Z,3.65
2019-02-04T13:25:39.461Z,2.87
2019-02-04T13:30:45.508Z,4.87
2019-02-04T13:35:51.480Z,6.82
2019-02-04T13:41:07.570Z,9.75
2019-02-04T13:46:05.801Z,2.68
2019-02-04T13:51:08.483Z,6.90
2019-02-04T13:56:14.573Z,5.12
2019-02-04T14:01:20.512Z,2.07
2019-02-04T14:06:26.528Z,4.71
2019-02-04T14:11:32.569Z,3.51
2019-02-04T14:16:38.596Z,2.84
2019-02-04T14:21:44.600Z,4.61
2019-02-04T14:26:50.624Z,3.14
2019-02-04T14:31:56.635Z,3.25
2019-02-04T14:37:02.629Z,2.99
2019-02-04T14:42:08.717Z,3.38
2019-02-04T14:47:14.729Z,3.29
2019-02-04T14:52:21.794Z,3.35
2019-02-04T14:57:26.330Z,3.45
2019-02-04T15:02:32.450Z,2.36
2019-02-04T15:07:38.508Z,2.47
2019-02-04T15:12:44.704Z,2.92
2019-02-04T15:17:50.710Z,2.69
2019-02-04T15:22:56.705Z,2.54
2019-02-04T15:28:02.814Z,3.68
2019-02-04T15:33:08.897Z,2.05
2019-02-04T15:38:14.903Z,2.42
2019-02-04T15:43:20.918Z,2.40
2019-02-04T15:48:27.124Z,3.91
2019-02-04T15:53:33.156Z,2.51
2019-02-04T15:58:39.155Z,4.11
2019-02-04T16:03:45.140Z,4.00
2019-02-04T16:08:51.143Z,5.75
2019-02-04T16:13:57.162Z,2.64
2019-02-04T16:19:03.170Z,2.29
2019-02-04T16:24:09.165Z,2.65
2019-02-04T16:29:15.212Z,2.16
2019-02-04T16:34:23.940Z,5.23
2019-02-04T16:39:26.859Z,3.04
2019-02-04T16:44:32.885Z,3.70
2019-02-04T16:49:39.373Z,2.69
2019-02-04T16:54:45.356Z,3.03
2019-02-04T16:59:51.349Z,4.65
2019-02-04T17:04:57.372Z,5.27
2019-02-04T17:10:03.380Z,3.00
2019-02-04T17:15:09.420Z,2.99
2019-02-04T17:20:15.426Z,2.20
2019-02-04T17:25:21.435Z,3.20
2019-02-04T17:30:27.459Z,3.56
2019-02-04T17:35:33.534Z,4.29
2019-02-04T17:40:39.584Z,3.66
2019-02-04T17:45:45.654Z,3.33
2019-02-04T17:50:51.678Z,3.65
2019-02-04T17:55:57.759Z,3.18
2019-02-04T18:01:03.849Z,2.99
2019-02-04T18:06:09.863Z,6.36
2019-02-04T18:11:16.048Z,4.45
2019-02-04T18:16:22.245Z,3.42
2019-02-04T18:21:28.351Z,3.86
2019-02-04T18:26:34.373Z,8.61
2019-02-04T18:31:40.385Z,4.33
2019-02-04T18:36:47.102Z,4.02
2019-02-04T18:41:51.976Z,4.48
2019-02-04T18:46:58.005Z,3.09
2019-02-04T18:52:04.066Z,4.88
2019-02-04T18:57:10.142Z,5.29
2019-02-04T19:02:16.155Z,4.29
2019-02-04T19:07:22.167Z,4.93
2019-02-04T19:12:28.285Z,5.91
2019-02-04T19:17:34.369Z,11.73
2019-02-04T19:22:40.519Z,10.17
2019-02-04T19:27:46.560Z,4.70
2019-02-04T19:32:52.697Z,5.71
2019-02-04T19:37:58.777Z,9.35
2019-02-04T19:43:04.903Z,8.10
2019-02-04T19:48:11.846Z,4.72
2019-02-04T19:53:17.913Z,10.76
2019-02-04T19:58:23.974Z,4.77
2019-02-04T20:03:29.995Z,4.93
2019-02-04T20:08:36.131Z,4.83
2019-02-04T20:13:42.170Z,4.95
2019-02-04T20:18:48.155Z,6.10
2019-02-04T20:23:54.239Z,5.24
2019-02-04T20:29:00.283Z,5.67
2019-02-04T20:34:06.336Z,5.90
2019-02-04T20:39:12.352Z,4.88
2019-02-04T20:44:19.312Z,4.07
2019-02-04T20:49:24.009Z,8.58
2019-02-04T20:54:30.667Z,4.95
2019-02-04T20:59:36.757Z,5.32
2019-02-04T21:04:42.872Z,5.24
2019-02-04T21:09:48.906Z,8.55
2019-02-04T21:14:54.917Z,3.79
2019-02-04T21:20:01.036Z,5.23
2019-02-04T21:25:07.038Z,4.94
2019-02-04T21:30:13.073Z,5.00
2019-02-04T21:35:19.077Z,9.18
2019-02-04T21:40:25.104Z,5.68
2019-02-04T21:45:31.379Z,9.22
2019-02-04T21:50:37.483Z,5.00
2019-02-04T21:55:43.535Z,4.59
2019-02-04T22:00:49.569Z,7.79
2019-02-04T22:05:55.603Z,4.18
2019-02-04T22:11:01.625Z,8.51
2019-02-04T22:16:07.646Z,3.96
2019-02-04T22:21:13.704Z,6.55
2019-02-04T22:26:19.705Z,4.04
2019-02-04T22:31:25.716Z,7.31
2019-02-04T22:36:31.828Z,3.58
2019-02-04T22:41:37.886Z,3.75
2019-02-04T22:46:43.930Z,3.47
2019-02-04T22:51:49.955Z,3.48
2019-02-04T22:56:56.048Z,3.92
2019-02-04T23:02:02.050Z,7.07
2019-02-04T23:07:08.089Z,3.55
2019-02-04T23:12:14.115Z,7.02
2019-02-04T23:17:20.140Z,4.26
2019-02-04T23:22:26.180Z,6.95
2019-02-04T23:27:32.158Z,3.71
2019-02-04T23:32:38.147Z,3.13
2019-02-04T23:37:44.140Z,7.00
2019-02-04T23:42:50.100Z,6.83
2019-02-04T23:47:56.126Z,4.34
2019-02-04T23:53:02.111Z,4.29
2019-02-04T23:58:08.096Z,3.64
